Time;durP1;ratioP1;P1;durP2;ratioP2;P2;SDS_P1;SDS_P2;PMS_P1;PMS_P2;Temp;Humidity;BMP_temperature;BMP_pressure;BME280_temperature;BME280_humidity;BME280_pressure;Samples;Min_cycle;Max_cycle;Signal;HPM_P1;HPM_P2
2022/08/13 00:04:59;;;;;;;0.20;0.00;;;28.20;99.90;;;;;;26144821;22;20191;-69
2022/08/13 00:15:29;;;;;;;0.20;0.00;;;27.90;99.90;;;;;;26144969;22;20195;-68
2022/08/13 00:25:33;;;;;;;0.20;0.00;;;27.50;99.90;;;;;;26169897;22;20179;-68
2022/08/13 00:35:52;;;;;;;0.20;0.00;;;27.20;99.90;;;;;;26142650;22;20228;-69
2022/08/13 00:45:56;;;;;;;0.20;0.00;;;27.20;99.90;;;;;;26169945;22;20190;-68
2022/08/13 00:56:01;;;;;;;0.20;0.10;;;27.30;99.90;;;;;;26170081;22;20163;-69
2022/08/13 01:06:08;;;;;;;0.20;0.00;;;26.90;99.90;;;;;;26167323;22;20198;-69
2022/08/13 01:16:14;;;;;;;0.20;0.00;;;26.70;99.90;;;;;;26141714;22;20195;-69
2022/08/13 01:26:22;;;;;;;0.20;0.00;;;26.70;99.90;;;;;;26142490;22;20188;-69
2022/08/13 01:36:26;;;;;;;0.20;0.10;;;27.20;99.90;;;;;;26142193;22;20163;-68
2022/08/13 01:57:13;;;;;;;0.20;0.00;;;27.50;99.90;;;;;;26169321;22;20173;-68
2022/08/13 02:07:20;;;;;;;0.20;0.00;;;27.20;99.90;;;;;;26169993;22;20196;-69
2022/08/13 02:17:27;;;;;;;0.20;0.00;;;26.70;99.90;;;;;;26141296;22;20214;-68
2022/08/13 02:27:55;;;;;;;0.20;0.10;;;26.50;99.90;;;;;;26148958;22;20183;-69
2022/08/13 02:38:01;;;;;;;0.20;0.00;;;26.20;99.90;;;;;;26174491;22;20166;-69
2022/08/13 02:48:08;;;;;;;0.20;0.10;;;26.30;99.90;;;;;;26151504;22;20202;-69
2022/08/13 02:58:24;;;;;;;0.20;0.00;;;26.10;99.90;;;;;;26175546;22;20175;-70
2022/08/13 03:08:30;;;;;;;0.20;0.00;;;25.80;99.90;;;;;;26172109;22;20191;-70
2022/08/13 03:18:42;;;;;;;0.20;0.10;;;25.40;99.90;;;;;;26145932;22;20163;-70
2022/08/13 03:28:57;;;;;;;0.20;0.05;;;25.40;99.90;;;;;;26174154;22;20197;-69
2022/08/13 03:39:01;;;;;;;0.20;0.00;;;25.40;99.90;;;;;;26172355;22;20164;-69
2022/08/13 03:49:07;;;;;;;0.20;0.00;;;25.30;99.90;;;;;;26171535;22;20179;-68
2022/08/13 03:59:13;;;;;;;0.20;0.00;;;25.20;99.90;;;;;;26169500;22;20172;-70
2022/08/13 04:09:19;;;;;;;0.20;0.00;;;25.20;99.90;;;;;;26141314;22;20195;-68
2022/08/13 04:19:26;;;;;;;0.20;0.00;;;25.00;99.90;;;;;;26172630;22;20156;-69
2022/08/13 04:29:33;;;;;;;0.20;0.00;;;25.10;99.90;;;;;;26144436;22;20190;-68
2022/08/13 04:39:54;;;;;;;0.20;0.00;;;25.10;99.90;;;;;;26170519;22;20171;-67
2022/08/13 04:50:15;;;;;;;0.20;0.10;;;25.20;99.90;;;;;;26170038;22;20183;-69
2022/08/13 05:00:24;;;;;;;0.20;0.00;;;25.20;99.90;;;;;;26141244;22;20186;-68
2022/08/13 05:10:31;;;;;;;0.20;0.08;;;25.50;99.90;;;;;;26141813;22;20221;-69
2022/08/13 05:20:35;;;;;;;0.20;0.00;;;25.70;99.90;;;;;;26139995;22;20163;-68
2022/08/13 05:30:40;;;;;;;0.20;0.00;;;25.80;99.90;;;;;;26168261;22;20246;-69
2022/08/13 05:40:44;;;;;;;0.20;0.00;;;26.00;99.90;;;;;;26140374;22;20163;-68
2022/08/13 05:51:00;;;;;;;0.20;0.00;;;26.20;99.90;;;;;;26169676;22;20186;-68
2022/08/13 06:11:29;;;;;;;0.20;0.10;;;26.60;99.90;;;;;;26176781;22;20194;-68
2022/08/13 06:21:52;;;;;;;0.20;0.00;;;27.00;99.90;;;;;;26173797;22;20167;-68
2022/08/13 06:32:06;;;;;;;0.20;0.10;;;27.10;99.90;;;;;;26175658;22;20187;-68
2022/08/13 06:42:33;;;;;;;0.20;0.00;;;27.50;99.90;;;;;;26172219;22;20194;-68
2022/08/13 06:52:40;;;;;;;0.20;0.00;;;27.80;99.90;;;;;;26174301;22;20167;-68
2022/08/13 07:02:44;;;;;;;0.20;0.00;;;28.30;99.90;;;;;;26172224;22;20185;-68
2022/08/13 07:12:50;;;;;;;0.20;0.00;;;28.00;99.90;;;;;;26119565;22;20205;-68
2022/08/13 07:22:55;;;;;;;0.20;0.00;;;28.20;99.90;;;;;;26145465;22;20183;-68
2022/08/13 07:33:21;;;;;;;0.20;0.00;;;28.80;99.90;;;;;;26170987;22;20163;-68
2022/08/13 07:43:27;;;;;;;0.20;0.00;;;29.40;99.90;;;;;;26141419;22;20194;-68
2022/08/13 07:53:43;;;;;;;0.20;0.00;;;29.70;99.90;;;;;;26169628;22;20183;-69
2022/08/13 08:04:00;;;;;;;0.20;0.00;;;29.00;99.90;;;;;;26144512;22;20249;-71
2022/08/13 08:14:06;;;;;;;0.20;0.00;;;29.30;99.90;;;;;;26168459;22;21177;-68
2022/08/13 08:24:16;;;;;;;0.20;0.00;;;29.50;99.90;;;;;;26140023;22;20187;-69
2022/08/13 08:34:35;;;;;;;0.20;0.00;;;29.50;99.90;;;;;;26169331;22;20163;-70
2022/08/13 08:44:41;;;;;;;0.20;0.00;;;29.80;99.90;;;;;;26168684;22;20183;-69
2022/08/13 08:54:47;;;;;;;0.20;0.00;;;29.50;99.90;;;;;;26167938;22;20176;-68
2022/08/13 09:04:54;;;;;;;0.20;0.10;;;29.40;99.90;;;;;;26167758;22;20557;-71
2022/08/13 09:15:05;;;;;;;0.20;0.00;;;29.80;99.90;;;;;;26166020;22;20186;-68
2022/08/13 09:25:10;;;;;;;0.20;0.05;;;29.70;99.90;;;;;;26167425;22;20533;-69
2022/08/13 09:35:18;;;;;;;0.20;0.00;;;29.40;99.90;;;;;;26166758;22;20168;-69
2022/08/13 09:45:25;;;;;;;0.20;0.00;;;29.00;99.90;;;;;;26167713;22;20194;-67
2022/08/13 09:55:37;;;;;;;0.20;0.03;;;30.00;99.90;;;;;;26164930;22;20155;-69
2022/08/13 10:05:57;;;;;;;0.20;0.00;;;30.40;99.90;;;;;;26165935;22;20195;-70
2022/08/13 10:16:05;;;;;;;0.20;0.00;;;30.70;99.90;;;;;;26136658;22;20195;-69
2022/08/13 10:26:11;;;;;;;0.20;0.00;;;30.80;99.90;;;;;;26166907;22;20199;-69
2022/08/13 10:36:17;;;;;;;0.20;0.00;;;30.60;99.90;;;;;;26163891;22;20183;-69
2022/08/13 10:46:20;;;;;;;0.20;0.00;;;30.60;99.90;;;;;;26173478;22;20208;-69
2022/08/13 10:56:33;;;;;;;0.20;0.00;;;30.60;99.90;;;;;;26145551;22;20171;-70
2022/08/13 11:06:38;;;;;;;0.20;0.00;;;31.40;99.90;;;;;;26142182;22;20204;-69
2022/08/13 11:16:57;;;;;;;0.20;0.00;;;31.70;99.90;;;;;;26171394;22;20195;-70
2022/08/13 11:27:06;;;;;;;0.20;0.00;;;32.10;99.90;;;;;;26143324;22;20298;-69
2022/08/13 11:37:13;;;;;;;0.20;0.00;;;32.70;99.90;;;;;;26144876;22;20171;-70
2022/08/13 11:47:17;;;;;;;10.63;9.73;;;33.00;99.90;;;;;;26144042;22;20180;-68
2022/08/13 11:57:35;;;;;;;0.20;0.00;;;32.90;99.90;;;;;;26169960;22;20223;-70
2022/08/13 12:07:48;;;;;;;0.20;0.00;;;33.70;99.90;;;;;;26170043;22;20198;-69
2022/08/13 12:17:53;;;;;;;0.20;0.00;;;34.60;99.90;;;;;;26168056;22;20195;-70
2022/08/13 12:28:16;;;;;;;0.20;0.00;;;35.80;99.90;;;;;;26170337;22;20188;-71
2022/08/13 12:38:29;;;;;;;0.20;0.00;;;35.30;99.90;;;;;;26142019;22;20240;-69
2022/08/13 12:48:33;;;;;;;0.20;0.00;;;35.50;99.90;;;;;;26170611;22;20202;-70
2022/08/13 12:58:41;;;;;;;0.20;0.00;;;35.40;99.90;;;;;;26168114;22;20222;-69
2022/08/13 13:08:48;;;;;;;0.20;0.00;;;34.60;99.90;;;;;;26167515;22;20269;-69
2022/08/13 13:18:56;;;;;;;0.20;0.00;;;34.30;99.90;;;;;;26167870;22;20171;-69
2022/08/13 13:29:02;;;;;;;0.20;0.00;;;33.20;99.90;;;;;;26167201;22;20187;-70
2022/08/13 13:39:08;;;;;;;0.20;0.00;;;34.50;99.90;;;;;;26168110;22;20167;-71
2022/08/13 13:49:24;;;;;;;0.20;0.00;;;33.80;99.90;;;;;;26169011;22;20183;-71
2022/08/13 13:59:34;;;;;;;0.52;0.52;;;34.10;99.90;;;;;;26166016;22;20181;-70
2022/08/13 14:09:48;;;;;;;0.20;0.00;;;33.90;99.90;;;;;;26166670;22;20199;-69
2022/08/13 14:19:54;;;;;;;0.20;0.00;;;34.40;99.90;;;;;;26176102;22;20187;-69
2022/08/13 14:29:59;;;;;;;0.20;0.00;;;34.50;99.90;;;;;;26146223;22;20261;-71
2022/08/13 14:40:07;;;;;;;0.88;0.88;;;34.00;99.90;;;;;;26175071;22;20174;-70
2022/08/13 14:50:13;;;;;;;0.20;0.10;;;33.60;99.90;;;;;;26174356;22;20187;-70
2022/08/13 15:00:19;;;;;;;0.20;0.05;;;33.10;99.90;;;;;;26174065;22;20172;-71
2022/08/13 15:10:30;;;;;;;0.20;0.00;;;32.00;99.90;;;;;;26174371;22;20205;-70
2022/08/13 15:20:38;;;;;;;0.20;0.00;;;31.70;99.90;;;;;;26173302;22;20247;-71
2022/08/13 15:31:02;;;;;;;0.20;0.00;;;31.20;99.90;;;;;;26171216;22;20191;-70
2022/08/13 15:41:09;;;;;;;0.20;0.00;;;30.80;99.90;;;;;;26142349;22;20163;-70
2022/08/13 15:51:14;;;;;;;0.20;0.00;;;30.60;99.90;;;;;;26146642;22;20202;-69
2022/08/13 16:01:36;;;;;;;0.20;0.00;;;30.50;99.90;;;;;;26145633;22;20163;-70
2022/08/13 16:11:46;;;;;;;0.20;0.00;;;30.40;99.90;;;;;;26116745;22;20221;-69
2022/08/13 16:21:51;;;;;;;0.20;0.00;;;30.70;99.90;;;;;;26141867;22;20174;-70
2022/08/13 16:31:56;;;;;;;0.20;0.00;;;30.70;99.90;;;;;;26169981;22;20206;-70
2022/08/13 16:42:04;;;;;;;0.20;0.00;;;30.20;99.90;;;;;;26167463;22;20209;-68
2022/08/13 16:52:11;;;;;;;0.20;0.00;;;30.30;99.90;;;;;;26168650;22;20202;-70
2022/08/13 17:09:10;;;;;;;0.20;0.00;;;30.10;99.90;;;;;;26167614;22;20207;-71
2022/08/13 17:12:42;;;;;;;0.20;0.00;;;30.00;99.90;;;;;;26137326;22;20234;-70
2022/08/13 17:22:48;;;;;;;0.20;0.00;;;29.60;99.90;;;;;;26165224;22;20201;-69
2022/08/13 17:32:55;;;;;;;0.20;0.00;;;29.20;99.90;;;;;;26165803;22;20234;-70
2022/08/13 17:43:00;;;;;;;0.20;0.00;;;29.20;99.90;;;;;;26165836;22;20167;-68
2022/08/13 17:53:24;;;;;;;0.20;0.00;;;29.10;99.90;;;;;;26170768;22;20186;-69
2022/08/13 18:03:29;;;;;;;0.20;0.00;;;29.20;99.90;;;;;;26170068;22;20164;-69
2022/08/13 18:13:42;;;;;;;0.20;0.00;;;29.40;99.90;;;;;;26123425;22;20202;-70
2022/08/13 18:24:09;;;;;;;0.20;0.00;;;29.60;99.90;;;;;;26172318;22;20188;-68
2022/08/13 18:34:23;;;;;;;0.20;0.00;;;29.20;99.90;;;;;;26172005;22;20161;-68
2022/08/13 18:44:31;;;;;;;0.20;0.00;;;28.40;99.90;;;;;;26172489;22;20180;-69
2022/08/13 18:54:38;;;;;;;0.20;0.00;;;28.20;99.90;;;;;;26170510;22;20196;-69
2022/08/13 19:04:50;;;;;;;0.20;0.00;;;28.10;99.90;;;;;;26167531;22;20191;-71
2022/08/13 19:14:56;;;;;;;0.20;0.00;;;28.10;99.90;;;;;;26173734;22;20206;-71
2022/08/13 19:25:01;;;;;;;0.20;0.00;;;28.40;99.90;;;;;;26170485;22;20279;-68
2022/08/13 19:35:06;;;;;;;0.20;0.00;;;29.00;99.90;;;;;;26148145;22;20164;-71
2022/08/13 19:45:21;;;;;;;0.20;0.00;;;29.50;99.90;;;;;;26172657;22;20187;-70
2022/08/13 19:55:26;;;;;;;0.20;0.00;;;29.80;99.90;;;;;;26142959;22;20574;-69
2022/08/13 20:05:52;;;;;;;0.20;0.00;;;29.70;99.90;;;;;;26166868;22;20191;-68
2022/08/13 20:15:56;;;;;;;0.20;0.00;;;28.80;99.90;;;;;;26142503;22;20191;-68
2022/08/13 20:26:02;;;;;;;0.20;0.00;;;28.40;99.90;;;;;;26171139;22;20258;-68
2022/08/13 20:36:20;;;;;;;0.20;0.00;;;28.20;99.90;;;;;;26170093;22;20162;-68
2022/08/13 20:46:27;;;;;;;0.20;0.00;;;27.90;99.90;;;;;;26169398;22;20190;-68
2022/08/13 20:56:31;;;;;;;0.20;0.00;;;28.10;99.90;;;;;;26170582;22;20399;-68
2022/08/13 21:06:46;;;;;;;0.20;0.00;;;28.40;99.90;;;;;;26143954;22;20194;-68
2022/08/13 21:16:54;;;;;;;0.20;0.00;;;28.40;99.90;;;;;;26165651;22;20198;-67
2022/08/13 21:27:00;;;;;;;0.20;0.00;;;28.10;99.90;;;;;;26168956;22;20187;-68
2022/08/13 21:37:24;;;;;;;0.20;0.00;;;27.90;99.90;;;;;;26167827;22;20163;-67
2022/08/13 21:47:36;;;;;;;0.20;0.00;;;27.80;99.90;;;;;;26166949;22;20199;-73
2022/08/13 21:57:42;;;;;;;0.20;0.00;;;27.60;99.90;;;;;;26140577;22;20197;-69
2022/08/13 22:07:49;;;;;;;0.20;0.00;;;27.40;99.90;;;;;;26166147;22;20207;-69
2022/08/13 22:18:01;;;;;;;0.20;0.00;;;27.40;99.90;;;;;;26141342;22;20187;-69
2022/08/13 22:30:47;;;;;;;0.20;0.00;;;27.20;99.90;;;;;;26167882;22;20191;-69
2022/08/13 22:38:32;;;;;;;0.20;0.00;;;26.90;99.90;;;;;;26172059;22;20168;-69
2022/08/13 22:48:41;;;;;;;0.20;0.00;;;27.00;99.90;;;;;;26147750;22;20194;-68
2022/08/13 22:58:49;;;;;;;0.20;0.00;;;27.20;99.90;;;;;;26175120;22;20208;-69
2022/08/13 23:08:54;;;;;;;0.20;0.00;;;26.90;99.90;;;;;;26148068;22;20207;-70
2022/08/13 23:19:01;;;;;;;0.20;0.00;;;26.90;99.90;;;;;;26175058;22;20181;-68
2022/08/13 23:29:07;;;;;;;0.20;0.00;;;26.90;99.90;;;;;;26144931;22;20210;-70
2022/08/13 23:39:11;;;;;;;0.20;0.00;;;26.50;99.90;;;;;;26174674;22;20182;-69
2022/08/13 23:49:16;;;;;;;0.20;0.00;;;26.80;99.90;;;;;;26172340;22;20194;-69
2022/08/13 23:59:24;;;;;;;0.20;0.00;;;27.20;99.90;;;;;;26174549;22;20251;-69
